Aeroporto :
LOGIN :

Iscrizione | Disclaimer

   EN    FR    IT 

 










Sommario :    VFR   VFR Marginale   IFR   IFR Intensivo   IFR Molto Intensivo
Visibilità : 
Base nubi : 
>= 8 km
>= 3000ft
5 / 8 km
1000 / 3000 ft
1500m / 5 km
500 / 1000 ft
800 / 1500m
200 / 500 ft
< 800m
< 200 ft
Simboli :   Temporali  Nebbia  Neve Forte  Precipitazioni Forti  Vento > 20 kt
SIGMETs :   Varie  Temporali  Ghiacco  Turbolenza  Onda orograficha  Ceneri Vulcaniche






- Altitudine del aeroporto : 26 ft


ETNT - Wittmundhaven AB

ULTIMO METAR :
  • 070020Z AUTO 27007KT 3400 // ////// 09/08 Q1026 ///

METARs OBSOLETI :
  • 062320Z AUTO VRB01KT 4700 // ////// 10/08 Q1025 ///
  • 062220Z AUTO 30007KT 3600 // ////// 10/08 Q1024 ///

TAF TAF ETNT
Valido dal 06 a 23 ore il 07 a 08 ore UTC


062202Z 0623/0708 28007KT 8000 NSW SCT008 BKN080
TEMPO 0623/0708 26005KT 2000 -DZRA SCT002 BKN004
PROB30 0701/0708 VRB03KT 0500 FG VV001 BY ETGL



MetMap, La meteo Aeronautica in un colpo d'occhio ! - Copyright ORBIFLY Dicembre 2007 - Disclaimer

ORBIFLY MET'MAP TEAM :

Programmazione e sviluppo : Alexandra Zaïnal
Concezione : Baudouin d'Aumeries
Aiuto per la programmazione : Marc-Olivier Méhu
Supporto tecnico e logistico : Manuel Goepfert
Aiuto per la traduzione : Arnaldo La Scala

Contatto : metmap@orbifly.com




FONTI E CREDITI :

   NOAA